ADDS METAR Data INFO
IDs: Format: Raw Decoded Include TAF

Data at: 1945 UTC 17 Feb 2018

KMGR 171935Z AUTO 00000KT 10SM SCT023 BKN029 BKN044 22/18 A3015 RMK AO2
KMGR 171915Z AUTO 00000KT 10SM SCT022 SCT029 BKN047 23/18 A3015 RMK AO2
KMGR 171855Z AUTO 17003KT 10SM SCT024 BKN034 BKN055 22/18 A3016 RMK AO2
KMGR 171835Z AUTO 00000KT 10SM SCT019 SCT025 BKN055 22/18 A3016 RMK AO2
KMGR 171815Z AUTO 00000KT 10SM SCT009 SCT016 SCT055 21/18 A3017 RMK AO2
KMGR 171755Z AUTO 00000KT 10SM SCT007 BKN016 20/18 A3018 RMK AO2
KMGR 171735Z AUTO 19005KT 7SM OVC005 18/18 A3019 RMK AO2
KMGR 171715Z AUTO 20005KT 7SM OVC003 18/18 A3020 RMK AO2
KMGR 171655Z AUTO 22005KT 7SM OVC003 18/17 A3020 RMK AO2
KMGR 171635Z AUTO 20006KT 5SM BR OVC003 17/17 A3020 RMK AO2
KMGR 171615Z AUTO 22005KT 3SM BR OVC001 17/17 A3020 RMK AO2
KMGR 171555Z AUTO 20006KT 1 1/2SM BR OVC001 17/17 A3020 RMK AO2
KMGR 171535Z AUTO 18004KT 3/4SM BR OVC001 17/16 A3020 RMK AO2
KMGR 171515Z AUTO 21003KT 1/2SM FG OVC001 16/16 A3019 RMK AO2
KMGR 171455Z AUTO 18003KT 1/4SM FG OVC001 16/16 A3019 RMK AO2
KMGR 171435Z AUTO 19005KT 1/4SM FG OVC001 16/15 A3020 RMK AO2
KMGR 171415Z AUTO 17004KT 1/4SM FG OVC001 16/15 A3019 RMK AO2
KMGR 171355Z AUTO 15004KT 1/4SM FG OVC001 15/15 A3018 RMK AO2
KMGR 171335Z AUTO 16003KT M1/4SM FG OVC001 15/15 A3018 RMK AO2
KMGR 171315Z AUTO 18003KT M1/4SM FG OVC001 15/15 A3018 RMK AO2
KMGR 171255Z AUTO 00000KT 1/4SM FG OVC001 15/15 A3018 RMK AO2
KMGR 171235Z AUTO 15003KT 1/4SM FG OVC001 15/15 A3017 RMK AO2
KMGR 171215Z AUTO 00000KT 1/2SM FG OVC001 15/15 A3017 RMK AO2
KMGR 171155Z AUTO 00000KT 1/4SM FG OVC001 15/15 A3016 RMK AO2
KMGR 171135Z AUTO 00000KT 1/4SM FG OVC001 15/15 A3016 RMK AO2
KMGR 171115Z AUTO 00000KT 1/2SM FG OVC001 15/15 A3016 RMK AO2
KMGR 171055Z AUTO 00000KT 1/4SM FG OVC001 15/15 A3016 RMK AO2
KMGR 171035Z AUTO 00000KT 1/4SM FG OVC001 15/14 A3015 RMK AO2
KMGR 171015Z AUTO 00000KT 3SM BR BKN001 14/14 A3015 RMK AO2
KMGR 170955Z AUTO 00000KT 7SM CLR 14/14 A3015 RMK AO2
KMGR 170935Z AUTO 00000KT 2 1/2SM BR CLR 16/15 A3014 RMK AO2 VIS 2V4
KMGR 170915Z AUTO 00000KT 1SM BR VV007 15/15 A3014 RMK AO2
KMGR 170855Z AUTO 00000KT 1 1/2SM BR VV007 16/15 A3014 RMK AO2
KMGR 170835Z AUTO 00000KT 1/2SM FG VV005 16/15 A3014 RMK AO2
KMGR 170815Z AUTO 00000KT 5SM BR CLR 16/16 A3014 RMK AO2
KMGR 170755Z AUTO 00000KT 2 1/2SM BR CLR 16/16 A3014 RMK AO2 VIS 1V5
KMGR 170735Z AUTO 00000KT 1/2SM FG VV005 16/16 A3014 RMK AO2
KMGR 170715Z AUTO 00000KT 1SM BR VV007 16/16 A3014 RMK AO2
KMGR 170655Z AUTO 00000KT 3/4SM BR VV005 16/16 A3015 RMK AO2
KMGR 170635Z AUTO 00000KT 7SM CLR 17/17 A3015 RMK AO2
KMGR 170615Z AUTO 00000KT 10SM CLR 17/17 A3015 RMK AO2
KMGR 170555Z AUTO 00000KT 7SM CLR 17/17 A3015 RMK AO2
KMGR 170535Z AUTO 00000KT 7SM CLR 17/17 A3014 RMK AO2
KMGR 170515Z AUTO 21003KT 4SM BR CLR 17/17 A3014 RMK AO2
KMGR 170455Z AUTO 00000KT 1 1/2SM BR VV007 17/17 A3014 RMK AO2 VIS 1/2V3
KMGR 170435Z AUTO 00000KT 4SM BR CLR 17/17 A3013 RMK AO2
KMGR 170415Z AUTO 00000KT 5SM BR CLR 17/17 A3013 RMK AO2
KMGR 170355Z AUTO 00000KT 7SM CLR 17/17 A3014 RMK AO2
KMGR 170335Z AUTO 00000KT 10SM CLR 18/17 A3014 RMK AO2
KMGR 170315Z AUTO 00000KT 10SM CLR 18/17 A3015 RMK AO2
KMGR 170255Z AUTO 00000KT 10SM SCT055 18/17 A3015 RMK AO2
KMGR 170235Z AUTO 00000KT 10SM SCT055 18/17 A3015 RMK AO2
KMGR 170215Z AUTO 17003KT 10SM CLR 18/16 A3014 RMK AO2
KMGR 170155Z AUTO 00000KT 10SM CLR 18/16 A3014 RMK AO2
KMGR 170135Z AUTO 00000KT 10SM CLR 18/15 A3014 RMK AO2
KMGR 170115Z AUTO 00000KT 10SM CLR 18/15 A3013 RMK AO2
KMGR 170055Z AUTO 00000KT 10SM CLR 20/15 A3013 RMK AO2
KMGR 170035Z AUTO 00000KT 10SM CLR 20/16 A3013 RMK AO2
KMGR 170015Z AUTO 00000KT 10SM CLR 22/15 A3012 RMK AO2
KMGR 162355Z AUTO 00000KT 10SM CLR 22/15 A3011 RMK AO2
KMGR 162335Z AUTO 00000KT 10SM CLR 23/15 A3010 RMK AO2
KMGR 162315Z AUTO 28003KT 10SM CLR 24/15 A3010 RMK AO2
KMGR 162255Z AUTO 27007KT 10SM CLR 25/15 A3009 RMK AO2
KMGR 162235Z AUTO 26010G14KT 10SM CLR 26/15 A3009 RMK AO2
KMGR 162215Z AUTO 28010KT 247V307 10SM CLR 26/15 A3009 RMK AO2
KMGR 162155Z AUTO 26010G17KT 10SM CLR 26/15 A3008 RMK AO2
KMGR 162135Z AUTO 24011G18KT 10SM CLR 27/15 A3008 RMK AO2
KMGR 162115Z AUTO 27010G16KT 10SM CLR 27/15 A3009 RMK AO2
KMGR 162055Z AUTO 28011G18KT 10SM CLR 27/15 A3008 RMK AO2
KMGR 162035Z AUTO 26013G21KT 10SM CLR 27/14 A3009 RMK AO2
KMGR 162015Z AUTO 27012G19KT 10SM SCT050 26/15 A3009 RMK AO2
KMGR 161955Z AUTO 28009G14KT 10SM SCT050 26/16 A3009 RMK AO2
KMGR 161935Z AUTO 26014G23KT 10SM SCT044 SCT049 27/16 A3010 RMK AO2
KMGR 161915Z AUTO 29008G15KT 10SM SCT042 SCT049 26/17 A3010 RMK AO2
KMGR 161855Z AUTO 25015G22KT 10SM SCT044 SCT049 26/16 A3011 RMK AO2
KMGR 161835Z AUTO 26013G18KT 10SM SCT035 SCT043 26/16 A3011 RMK AO2
KMGR 161815Z AUTO 24012G19KT 10SM SCT037 BKN043 25/17 A3012 RMK AO2
KMGR 161755Z AUTO 26008G19KT 10SM SCT026 SCT033 SCT039 25/17 A3013 RMK AO2
KMGR 161735Z AUTO 24014G20KT 10SM SCT024 BKN030 OVC042 25/18 A3015 RMK AO2
KMGR 161715Z AUTO 23011G16KT 10SM SCT024 BKN033 BKN041 24/18 A3016 RMK AO2
KMGR 161655Z AUTO 25010KT 10SM SCT017 BKN024 BKN030 23/18 A3017 RMK AO2
KMGR 161635Z AUTO 26010G14KT 10SM SCT010 SCT015 BKN021 22/18 A3018 RMK AO2
KMGR 161615Z AUTO 24008KT 10SM BKN010 BKN017 BKN030 22/18 A3019 RMK AO2
KMGR 161555Z AUTO 24010KT 10SM OVC010 21/18 A3020 RMK AO2
KMGR 161535Z AUTO 24009KT 10SM OVC006 20/18 A3020 RMK AO2
KMGR 161515Z AUTO 23006KT 10SM OVC006 20/18 A3020 RMK AO2
KMGR 161455Z AUTO 23006KT 10SM OVC004 19/18 A3020 RMK AO2
KMGR 161435Z AUTO 21004KT 10SM OVC004 18/18 A3020 RMK AO2
KMGR 161415Z AUTO 22005KT 7SM OVC004 18/17 A3020 RMK AO2
KMGR 161355Z AUTO 22004KT 5SM BR OVC002 17/17 A3020 RMK AO2
KMGR 161335Z AUTO 20003KT 4SM BR OVC002 17/16 A3020 RMK AO2
KMGR 161315Z AUTO 22003KT 2 1/2SM BR OVC002 17/16 A3019 RMK AO2
KMGR 161255Z AUTO 23003KT 1 3/4SM BR OVC002 16/16 A3019 RMK AO2
KMGR 161235Z AUTO 00000KT 2 1/2SM BR OVC002 16/16 A3019 RMK AO2
KMGR 161215Z AUTO 00000KT 4SM BR OVC002 16/16 A3018 RMK AO2
KMGR 161155Z AUTO 00000KT 3SM BR OVC002 16/16 A3018 RMK AO2
KMGR 161135Z AUTO 00000KT 2SM BR OVC002 16/16 A3018 RMK AO2
KMGR 161115Z AUTO 00000KT 1 3/4SM BR OVC002 16/16 A3018 RMK AO2
KMGR 161055Z AUTO 23004KT 1 1/2SM BR OVC002 16/16 A3018 RMK AO2
KMGR 161035Z AUTO 23005KT 1 1/2SM BR OVC002 16/16 A3017 RMK AO2
KMGR 161015Z AUTO 24010KT 4SM BR OVC002 16/16 A3017 RMK AO2
KMGR 160955Z AUTO 24003KT 1SM BR OVC002 16/16 A3016 RMK AO2
KMGR 160935Z AUTO 25004KT 3/4SM BR OVC002 16/16 A3016 RMK AO2
KMGR 160915Z AUTO 24005KT 1SM BR OVC002 16/16 A3016 RMK AO2
KMGR 160855Z AUTO 24005KT 1SM BR OVC002 16/16 A3016 RMK AO2
KMGR 160835Z AUTO 24004KT 3/4SM BR OVC002 16/16 A3017 RMK AO2
KMGR 160815Z AUTO 24006KT 3/4SM BR OVC002 16/16 A3017 RMK AO2
KMGR 160755Z AUTO 23006KT 1 1/2SM BR OVC002 16/16 A3017 RMK AO2